sensor_id;sensor_type;location;lat;lon;timestamp;P1;durP1;ratioP1;P2;durP2;ratioP2
50219;SDS011;36110;51.536;7.562;2023-04-15T00:01:07;5.10;;;3.92;;
50219;SDS011;36110;51.536;7.562;2023-04-15T00:03:33;2.20;;;2.03;;
50219;SDS011;36110;51.536;7.562;2023-04-15T00:05:59;5.50;;;4.75;;
50219;SDS011;36110;51.536;7.562;2023-04-15T00:08:25;2.20;;;2.00;;
50219;SDS011;36110;51.536;7.562;2023-04-15T00:10:50;2.00;;;1.90;;
50219;SDS011;36110;51.536;7.562;2023-04-15T00:13:16;2.17;;;1.80;;
50219;SDS011;36110;51.536;7.562;2023-04-15T00:15:41;3.60;;;2.10;;
50219;SDS011;36110;51.536;7.562;2023-04-15T00:18:07;2.88;;;2.20;;
50219;SDS011;36110;51.536;7.562;2023-04-15T00:20:33;3.50;;;1.90;;
50219;SDS011;36110;51.536;7.562;2023-04-15T00:22:59;2.42;;;2.00;;
50219;SDS011;36110;51.536;7.562;2023-04-15T00:25:26;2.67;;;2.00;;
50219;SDS011;36110;51.536;7.562;2023-04-15T00:27:52;2.42;;;2.05;;
50219;SDS011;36110;51.536;7.562;2023-04-15T00:30:17;4.63;;;2.30;;
50219;SDS011;36110;51.536;7.562;2023-04-15T00:32:43;2.05;;;1.95;;
50219;SDS011;36110;51.536;7.562;2023-04-15T00:35:08;5.43;;;2.17;;
50219;SDS011;36110;51.536;7.562;2023-04-15T00:37:34;2.17;;;2.08;;
50219;SDS011;36110;51.536;7.562;2023-04-15T00:40:00;3.70;;;2.17;;
50219;SDS011;36110;51.536;7.562;2023-04-15T00:42:29;2.60;;;2.40;;
50219;SDS011;36110;51.536;7.562;2023-04-15T00:44:55;2.50;;;2.30;;
50219;SDS011;36110;51.536;7.562;2023-04-15T00:47:21;2.30;;;2.20;;
50219;SDS011;36110;51.536;7.562;2023-04-15T00:49:46;2.90;;;2.40;;
50219;SDS011;36110;51.536;7.562;2023-04-15T00:52:12;4.38;;;2.13;;
50219;SDS011;36110;51.536;7.562;2023-04-15T00:54:37;2.47;;;2.28;;
50219;SDS011;36110;51.536;7.562;2023-04-15T00:57:06;2.83;;;2.20;;
50219;SDS011;36110;51.536;7.562;2023-04-15T00:59:32;2.50;;;2.20;;
50219;SDS011;36110;51.536;7.562;2023-04-15T01:01:58;3.03;;;2.08;;
50219;SDS011;36110;51.536;7.562;2023-04-15T01:04:24;2.58;;;2.38;;
50219;SDS011;36110;51.536;7.562;2023-04-15T01:06:49;2.80;;;2.20;;
50219;SDS011;36110;51.536;7.562;2023-04-15T01:09:15;2.30;;;2.10;;
50219;SDS011;36110;51.536;7.562;2023-04-15T01:11:40;2.70;;;2.50;;
50219;SDS011;36110;51.536;7.562;2023-04-15T01:14:05;2.78;;;2.42;;
50219;SDS011;36110;51.536;7.562;2023-04-15T01:16:32;2.40;;;2.20;;
50219;SDS011;36110;51.536;7.562;2023-04-15T01:18:57;2.38;;;2.17;;
50219;SDS011;36110;51.536;7.562;2023-04-15T01:21:23;3.22;;;2.33;;
50219;SDS011;36110;51.536;7.562;2023-04-15T01:23:48;2.50;;;2.30;;
50219;SDS011;36110;51.536;7.562;2023-04-15T01:26:14;2.60;;;2.40;;
50219;SDS011;36110;51.536;7.562;2023-04-15T01:28:41;2.40;;;2.22;;
50219;SDS011;36110;51.536;7.562;2023-04-15T01:33:36;2.75;;;2.38;;
50219;SDS011;36110;51.536;7.562;2023-04-15T01:36:02;3.08;;;2.03;;
50219;SDS011;36110;51.536;7.562;2023-04-15T01:38:28;2.72;;;2.50;;
50219;SDS011;36110;51.536;7.562;2023-04-15T01:40:53;2.78;;;2.58;;
50219;SDS011;36110;51.536;7.562;2023-04-15T01:43:19;2.47;;;2.30;;
50219;SDS011;36110;51.536;7.562;2023-04-15T01:45:44;2.60;;;2.40;;
50219;SDS011;36110;51.536;7.562;2023-04-15T01:48:09;2.97;;;2.67;;
50219;SDS011;36110;51.536;7.562;2023-04-15T01:50:35;2.50;;;2.30;;
50219;SDS011;36110;51.536;7.562;2023-04-15T01:53:02;2.58;;;2.38;;
50219;SDS011;36110;51.536;7.562;2023-04-15T01:55:27;3.28;;;2.40;;
50219;SDS011;36110;51.536;7.562;2023-04-15T01:57:52;3.25;;;2.88;;
50219;SDS011;36110;51.536;7.562;2023-04-15T02:00:18;3.30;;;2.53;;
50219;SDS011;36110;51.536;7.562;2023-04-15T02:02:43;2.65;;;2.45;;
50219;SDS011;36110;51.536;7.562;2023-04-15T02:05:08;2.90;;;2.70;;
50219;SDS011;36110;51.536;7.562;2023-04-15T02:07:34;2.88;;;2.33;;
50219;SDS011;36110;51.536;7.562;2023-04-15T02:10:00;2.72;;;2.53;;
50219;SDS011;36110;51.536;7.562;2023-04-15T02:12:26;3.55;;;2.42;;
50219;SDS011;36110;51.536;7.562;2023-04-15T02:14:52;3.15;;;2.80;;
50219;SDS011;36110;51.536;7.562;2023-04-15T02:17:17;2.80;;;2.60;;
50219;SDS011;36110;51.536;7.562;2023-04-15T02:19:42;3.08;;;2.55;;
50219;SDS011;36110;51.536;7.562;2023-04-15T02:22:08;2.72;;;2.53;;
50219;SDS011;36110;51.536;7.562;2023-04-15T02:24:35;3.55;;;2.50;;
50219;SDS011;36110;51.536;7.562;2023-04-15T02:27:00;3.10;;;2.80;;
50219;SDS011;36110;51.536;7.562;2023-04-15T02:29:32;2.75;;;2.55;;
50219;SDS011;36110;51.536;7.562;2023-04-15T02:31:57;2.72;;;2.53;;
50219;SDS011;36110;51.536;7.562;2023-04-15T02:34:22;3.05;;;2.50;;
50219;SDS011;36110;51.536;7.562;2023-04-15T02:36:48;2.95;;;2.58;;
50219;SDS011;36110;51.536;7.562;2023-04-15T02:39:13;3.13;;;2.60;;
50219;SDS011;36110;51.536;7.562;2023-04-15T02:41:40;5.85;;;2.90;;
50219;SDS011;36110;51.536;7.562;2023-04-15T02:44:07;2.90;;;2.40;;
50219;SDS011;36110;51.536;7.562;2023-04-15T02:46:34;3.10;;;2.80;;
50219;SDS011;36110;51.536;7.562;2023-04-15T02:49:00;2.78;;;2.58;;
50219;SDS011;36110;51.536;7.562;2023-04-15T02:51:28;2.70;;;2.50;;
50219;SDS011;36110;51.536;7.562;2023-04-15T02:53:55;3.05;;;2.40;;
50219;SDS011;36110;51.536;7.562;2023-04-15T02:56:20;3.22;;;2.80;;
50219;SDS011;36110;51.536;7.562;2023-04-15T02:58:47;2.90;;;2.70;;
50219;SDS011;36110;51.536;7.562;2023-04-15T03:01:14;3.33;;;2.83;;
50219;SDS011;36110;51.536;7.562;2023-04-15T03:03:40;3.35;;;2.70;;
50219;SDS011;36110;51.536;7.562;2023-04-15T03:06:05;3.92;;;3.55;;
50219;SDS011;36110;51.536;7.562;2023-04-15T03:08:30;3.42;;;2.80;;
50219;SDS011;36110;51.536;7.562;2023-04-15T03:10:57;3.05;;;2.75;;
50219;SDS011;36110;51.536;7.562;2023-04-15T03:13:24;3.03;;;2.80;;
50219;SDS011;36110;51.536;7.562;2023-04-15T03:15:49;3.85;;;2.60;;
50219;SDS011;36110;51.536;7.562;2023-04-15T03:18:15;3.00;;;2.67;;
50219;SDS011;36110;51.536;7.562;2023-04-15T03:20:40;2.90;;;2.70;;
50219;SDS011;36110;51.536;7.562;2023-04-15T03:23:05;2.90;;;2.70;;
50219;SDS011;36110;51.536;7.562;2023-04-15T03:25:31;3.42;;;2.83;;
50219;SDS011;36110;51.536;7.562;2023-04-15T03:27:56;4.10;;;2.80;;
50219;SDS011;36110;51.536;7.562;2023-04-15T03:30:22;2.97;;;2.67;;
50219;SDS011;36110;51.536;7.562;2023-04-15T03:32:47;3.05;;;2.75;;
50219;SDS011;36110;51.536;7.562;2023-04-15T03:35:13;3.00;;;2.80;;
50219;SDS011;36110;51.536;7.562;2023-04-15T03:37:38;3.33;;;3.03;;
50219;SDS011;36110;51.536;7.562;2023-04-15T03:40:03;3.97;;;2.67;;
50219;SDS011;36110;51.536;7.562;2023-04-15T03:42:29;2.63;;;2.42;;
50219;SDS011;36110;51.536;7.562;2023-04-15T03:44:55;2.90;;;2.58;;
50219;SDS011;36110;51.536;7.562;2023-04-15T03:47:20;4.25;;;2.95;;
50219;SDS011;36110;51.536;7.562;2023-04-15T03:49:46;4.05;;;3.00;;
50219;SDS011;36110;51.536;7.562;2023-04-15T03:52:12;3.75;;;2.80;;
50219;SDS011;36110;51.536;7.562;2023-04-15T03:54:37;3.47;;;2.85;;
50219;SDS011;36110;51.536;7.562;2023-04-15T03:57:03;3.30;;;3.00;;
50219;SDS011;36110;51.536;7.562;2023-04-15T03:59:28;3.40;;;2.80;;
50219;SDS011;36110;51.536;7.562;2023-04-15T04:01:53;5.20;;;2.97;;
50219;SDS011;36110;51.536;7.562;2023-04-15T04:04:19;3.28;;;2.92;;
50219;SDS011;36110;51.536;7.562;2023-04-15T04:06:44;4.57;;;3.30;;
50219;SDS011;36110;51.536;7.562;2023-04-15T04:09:09;3.72;;;3.00;;
50219;SDS011;36110;51.536;7.562;2023-04-15T04:11:35;4.78;;;3.05;;
50219;SDS011;36110;51.536;7.562;2023-04-15T04:14:01;4.88;;;3.45;;
50219;SDS011;36110;51.536;7.562;2023-04-15T04:16:26;4.35;;;3.10;;
50219;SDS011;36110;51.536;7.562;2023-04-15T04:18:52;3.20;;;2.90;;
50219;SDS011;36110;51.536;7.562;2023-04-15T04:21:17;4.28;;;3.10;;
50219;SDS011;36110;51.536;7.562;2023-04-15T04:23:44;3.10;;;2.78;;
50219;SDS011;36110;51.536;7.562;2023-04-15T04:26:09;3.20;;;3.00;;
50219;SDS011;36110;51.536;7.562;2023-04-15T04:28:34;3.40;;;3.10;;
50219;SDS011;36110;51.536;7.562;2023-04-15T04:31:00;3.05;;;2.75;;
50219;SDS011;36110;51.536;7.562;2023-04-15T04:33:25;5.90;;;3.25;;
50219;SDS011;36110;51.536;7.562;2023-04-15T04:35:51;4.93;;;3.28;;
50219;SDS011;36110;51.536;7.562;2023-04-15T04:38:16;3.25;;;2.95;;
50219;SDS011;36110;51.536;7.562;2023-04-15T04:40:44;4.70;;;3.13;;
50219;SDS011;36110;51.536;7.562;2023-04-15T04:43:09;3.20;;;3.00;;
50219;SDS011;36110;51.536;7.562;2023-04-15T04:45:34;3.22;;;2.92;;
50219;SDS011;36110;51.536;7.562;2023-04-15T04:48:00;4.20;;;3.35;;
50219;SDS011;36110;51.536;7.562;2023-04-15T04:50:25;3.75;;;2.90;;
50219;SDS011;36110;51.536;7.562;2023-04-15T04:52:51;3.38;;;3.08;;
50219;SDS011;36110;51.536;7.562;2023-04-15T04:55:16;4.43;;;3.20;;
50219;SDS011;36110;51.536;7.562;2023-04-15T04:57:42;3.42;;;3.10;;
50219;SDS011;36110;51.536;7.562;2023-04-15T05:00:07;4.05;;;3.20;;
50219;SDS011;36110;51.536;7.562;2023-04-15T05:02:33;3.35;;;3.05;;
50219;SDS011;36110;51.536;7.562;2023-04-15T05:04:59;3.20;;;2.90;;
50219;SDS011;36110;51.536;7.562;2023-04-15T05:07:25;4.15;;;2.80;;
50219;SDS011;36110;51.536;7.562;2023-04-15T05:09:51;4.68;;;3.28;;
50219;SDS011;36110;51.536;7.562;2023-04-15T05:12:16;3.40;;;3.10;;
50219;SDS011;36110;51.536;7.562;2023-04-15T05:14:42;3.72;;;3.40;;
50219;SDS011;36110;51.536;7.562;2023-04-15T05:17:07;3.97;;;3.05;;
50219;SDS011;36110;51.536;7.562;2023-04-15T05:19:33;5.50;;;3.17;;
50219;SDS011;36110;51.536;7.562;2023-04-15T05:21:58;3.50;;;3.20;;
50219;SDS011;36110;51.536;7.562;2023-04-15T05:24:24;3.72;;;3.20;;
50219;SDS011;36110;51.536;7.562;2023-04-15T05:26:50;3.13;;;2.92;;
50219;SDS011;36110;51.536;7.562;2023-04-15T05:29:15;4.78;;;3.13;;
50219;SDS011;36110;51.536;7.562;2023-04-15T05:31:41;3.50;;;3.20;;
50219;SDS011;36110;51.536;7.562;2023-04-15T05:34:07;3.50;;;3.20;;
50219;SDS011;36110;51.536;7.562;2023-04-15T05:36:32;3.33;;;3.03;;
50219;SDS011;36110;51.536;7.562;2023-04-15T05:38:58;13.10;;;9.75;;
50219;SDS011;36110;51.536;7.562;2023-04-15T05:41:23;3.83;;;3.53;;
50219;SDS011;36110;51.536;7.562;2023-04-15T05:43:48;4.10;;;3.10;;
50219;SDS011;36110;51.536;7.562;2023-04-15T05:46:14;3.33;;;3.03;;
50219;SDS011;36110;51.536;7.562;2023-04-15T05:48:39;3.53;;;3.22;;
50219;SDS011;36110;51.536;7.562;2023-04-15T05:51:05;3.22;;;2.92;;
50219;SDS011;36110;51.536;7.562;2023-04-15T05:53:31;3.55;;;3.22;;
50219;SDS011;36110;51.536;7.562;2023-04-15T05:55:56;5.30;;;3.15;;
50219;SDS011;36110;51.536;7.562;2023-04-15T05:58:22;3.58;;;3.28;;
50219;SDS011;36110;51.536;7.562;2023-04-15T06:00:47;3.45;;;3.15;;
50219;SDS011;36110;51.536;7.562;2023-04-15T06:03:12;3.47;;;3.13;;
50219;SDS011;36110;51.536;7.562;2023-04-15T06:05:38;3.10;;;2.80;;
50219;SDS011;36110;51.536;7.562;2023-04-15T06:08:03;5.78;;;3.25;;
50219;SDS011;36110;51.536;7.562;2023-04-15T06:10:28;5.28;;;3.17;;
50219;SDS011;36110;51.536;7.562;2023-04-15T06:12:54;4.43;;;3.40;;
50219;SDS011;36110;51.536;7.562;2023-04-15T06:15:20;3.85;;;3.08;;
50219;SDS011;36110;51.536;7.562;2023-04-15T06:17:45;3.50;;;3.20;;
50219;SDS011;36110;51.536;7.562;2023-04-15T06:20:11;3.58;;;3.22;;
50219;SDS011;36110;51.536;7.562;2023-04-15T06:22:36;3.15;;;2.90;;
50219;SDS011;36110;51.536;7.562;2023-04-15T06:25:05;4.47;;;2.80;;
50219;SDS011;36110;51.536;7.562;2023-04-15T06:27:32;3.33;;;3.03;;
50219;SDS011;36110;51.536;7.562;2023-04-15T06:29:57;3.63;;;3.33;;
50219;SDS011;36110;51.536;7.562;2023-04-15T06:32:22;4.85;;;3.40;;
50219;SDS011;36110;51.536;7.562;2023-04-15T06:34:48;3.80;;;3.50;;
50219;SDS011;36110;51.536;7.562;2023-04-15T06:37:13;3.47;;;3.17;;
50219;SDS011;36110;51.536;7.562;2023-04-15T06:39:40;3.97;;;3.40;;
50219;SDS011;36110;51.536;7.562;2023-04-15T06:42:06;3.45;;;3.10;;
50219;SDS011;36110;51.536;7.562;2023-04-15T06:44:32;4.10;;;3.28;;
50219;SDS011;36110;51.536;7.562;2023-04-15T06:46:57;3.38;;;3.08;;
50219;SDS011;36110;51.536;7.562;2023-04-15T06:49:22;3.65;;;3.28;;
50219;SDS011;36110;51.536;7.562;2023-04-15T06:51:48;2.90;;;2.70;;
50219;SDS011;36110;51.536;7.562;2023-04-15T06:54:13;3.28;;;3.08;;
50219;SDS011;36110;51.536;7.562;2023-04-15T06:56:38;3.45;;;3.15;;
50219;SDS011;36110;51.536;7.562;2023-04-15T06:59:04;3.50;;;3.20;;
50219;SDS011;36110;51.536;7.562;2023-04-15T07:01:29;4.53;;;3.20;;
50219;SDS011;36110;51.536;7.562;2023-04-15T07:03:55;3.50;;;3.20;;
50219;SDS011;36110;51.536;7.562;2023-04-15T07:06:21;4.00;;;3.03;;
50219;SDS011;36110;51.536;7.562;2023-04-15T07:08:46;3.30;;;3.00;;
50219;SDS011;36110;51.536;7.562;2023-04-15T07:11:11;4.25;;;3.03;;
50219;SDS011;36110;51.536;7.562;2023-04-15T07:13:37;9.80;;;8.57;;
50219;SDS011;36110;51.536;7.562;2023-04-15T07:16:02;4.47;;;3.55;;
50219;SDS011;36110;51.536;7.562;2023-04-15T07:18:27;3.40;;;3.10;;
50219;SDS011;36110;51.536;7.562;2023-04-15T07:20:53;3.80;;;3.20;;
50219;SDS011;36110;51.536;7.562;2023-04-15T07:23:18;3.30;;;3.00;;
50219;SDS011;36110;51.536;7.562;2023-04-15T07:25:43;3.50;;;3.20;;
50219;SDS011;36110;51.536;7.562;2023-04-15T07:28:09;12.10;;;10.25;;
50219;SDS011;36110;51.536;7.562;2023-04-15T07:30:34;3.92;;;3.33;;
50219;SDS011;36110;51.536;7.562;2023-04-15T07:33:00;3.30;;;3.00;;
50219;SDS011;36110;51.536;7.562;2023-04-15T07:35:26;6.18;;;5.35;;
50219;SDS011;36110;51.536;7.562;2023-04-15T07:37:52;3.40;;;3.05;;
50219;SDS011;36110;51.536;7.562;2023-04-15T07:40:17;3.65;;;3.35;;
50219;SDS011;36110;51.536;7.562;2023-04-15T07:42:43;3.28;;;2.97;;
50219;SDS011;36110;51.536;7.562;2023-04-15T07:45:08;10.45;;;8.05;;
50219;SDS011;36110;51.536;7.562;2023-04-15T07:47:34;15.88;;;11.00;;
50219;SDS011;36110;51.536;7.562;2023-04-15T07:50:00;9.98;;;8.60;;
50219;SDS011;36110;51.536;7.562;2023-04-15T07:52:26;14.27;;;11.55;;
50219;SDS011;36110;51.536;7.562;2023-04-15T07:54:51;17.45;;;14.02;;
50219;SDS011;36110;51.536;7.562;2023-04-15T07:57:17;14.73;;;10.93;;
50219;SDS011;36110;51.536;7.562;2023-04-15T07:59:42;5.07;;;4.57;;
50219;SDS011;36110;51.536;7.562;2023-04-15T08:02:08;7.47;;;6.32;;
50219;SDS011;36110;51.536;7.562;2023-04-15T08:04:35;14.90;;;12.15;;
50219;SDS011;36110;51.536;7.562;2023-04-15T08:07:00;8.82;;;7.80;;
50219;SDS011;36110;51.536;7.562;2023-04-15T08:09:25;16.40;;;12.05;;
50219;SDS011;36110;51.536;7.562;2023-04-15T08:11:51;4.93;;;3.40;;
50219;SDS011;36110;51.536;7.562;2023-04-15T08:14:16;12.55;;;9.52;;
50219;SDS011;36110;51.536;7.562;2023-04-15T08:16:42;5.70;;;3.40;;
50219;SDS011;36110;51.536;7.562;2023-04-15T08:19:07;10.85;;;9.05;;
50219;SDS011;36110;51.536;7.562;2023-04-15T08:21:32;12.65;;;8.32;;
50219;SDS011;36110;51.536;7.562;2023-04-15T08:23:58;9.27;;;7.43;;
50219;SDS011;36110;51.536;7.562;2023-04-15T08:26:24;14.25;;;10.63;;
50219;SDS011;36110;51.536;7.562;2023-04-15T08:28:49;9.13;;;7.10;;
50219;SDS011;36110;51.536;7.562;2023-04-15T08:31:15;9.73;;;8.10;;
50219;SDS011;36110;51.536;7.562;2023-04-15T08:33:41;14.00;;;11.43;;
50219;SDS011;36110;51.536;7.562;2023-04-15T08:36:07;13.60;;;9.38;;
50219;SDS011;36110;51.536;7.562;2023-04-15T08:38:33;7.28;;;6.53;;
50219;SDS011;36110;51.536;7.562;2023-04-15T08:40:59;10.95;;;9.70;;
50219;SDS011;36110;51.536;7.562;2023-04-15T08:43:30;12.85;;;8.48;;
50219;SDS011;36110;51.536;7.562;2023-04-15T08:45:58;12.18;;;9.90;;
50219;SDS011;36110;51.536;7.562;2023-04-15T08:48:27;8.68;;;7.00;;
50219;SDS011;36110;51.536;7.562;2023-04-15T08:50:53;5.20;;;4.75;;
50219;SDS011;36110;51.536;7.562;2023-04-15T08:53:18;10.00;;;8.80;;
50219;SDS011;36110;51.536;7.562;2023-04-15T08:55:45;4.50;;;4.03;;
50219;SDS011;36110;51.536;7.562;2023-04-15T08:58:14;9.90;;;8.65;;
50219;SDS011;36110;51.536;7.562;2023-04-15T09:00:40;12.27;;;9.60;;
50219;SDS011;36110;51.536;7.562;2023-04-15T09:03:06;7.82;;;6.53;;
50219;SDS011;36110;51.536;7.562;2023-04-15T09:05:32;8.15;;;6.65;;
50219;SDS011;36110;51.536;7.562;2023-04-15T09:07:59;10.18;;;8.68;;
50219;SDS011;36110;51.536;7.562;2023-04-15T09:10:25;9.10;;;8.20;;
50219;SDS011;36110;51.536;7.562;2023-04-15T09:12:50;11.35;;;10.15;;
50219;SDS011;36110;51.536;7.562;2023-04-15T09:15:15;10.48;;;9.38;;
50219;SDS011;36110;51.536;7.562;2023-04-15T09:17:42;11.57;;;8.85;;
50219;SDS011;36110;51.536;7.562;2023-04-15T09:20:14;11.73;;;10.23;;
50219;SDS011;36110;51.536;7.562;2023-04-15T09:22:40;12.18;;;10.93;;
50219;SDS011;36110;51.536;7.562;2023-04-15T09:27:50;10.65;;;9.48;;
50219;SDS011;36110;51.536;7.562;2023-04-15T09:30:16;11.45;;;10.18;;
50219;SDS011;36110;51.536;7.562;2023-04-15T09:32:52;5.18;;;4.60;;
50219;SDS011;36110;51.536;7.562;2023-04-15T09:35:20;13.10;;;10.90;;
50219;SDS011;36110;51.536;7.562;2023-04-15T09:37:47;11.45;;;9.82;;
50219;SDS011;36110;51.536;7.562;2023-04-15T09:40:13;13.38;;;11.05;;
50219;SDS011;36110;51.536;7.562;2023-04-15T09:45:34;15.07;;;12.10;;
50219;SDS011;36110;51.536;7.562;2023-04-15T09:48:19;13.10;;;10.73;;
50219;SDS011;36110;51.536;7.562;2023-04-15T09:50:46;14.13;;;11.55;;
50219;SDS011;36110;51.536;7.562;2023-04-15T09:53:20;13.90;;;11.13;;
50219;SDS011;36110;51.536;7.562;2023-04-15T09:55:50;12.30;;;10.23;;
50219;SDS011;36110;51.536;7.562;2023-04-15T09:58:21;13.93;;;10.45;;
50219;SDS011;36110;51.536;7.562;2023-04-15T10:00:48;14.13;;;11.45;;
50219;SDS011;36110;51.536;7.562;2023-04-15T10:03:17;11.82;;;10.05;;
50219;SDS011;36110;51.536;7.562;2023-04-15T10:05:47;12.90;;;9.27;;
50219;SDS011;36110;51.536;7.562;2023-04-15T10:08:19;10.70;;;9.35;;
50219;SDS011;36110;51.536;7.562;2023-04-15T10:10:46;13.95;;;10.70;;
50219;SDS011;36110;51.536;7.562;2023-04-15T10:13:12;10.38;;;9.27;;
50219;SDS011;36110;51.536;7.562;2023-04-15T10:15:39;9.75;;;8.70;;
50219;SDS011;36110;51.536;7.562;2023-04-15T10:18:08;11.27;;;9.85;;
50219;SDS011;36110;51.536;7.562;2023-04-15T10:20:34;10.68;;;8.88;;
50219;SDS011;36110;51.536;7.562;2023-04-15T10:22:59;13.10;;;9.70;;
50219;SDS011;36110;51.536;7.562;2023-04-15T10:25:25;10.05;;;8.82;;
50219;SDS011;36110;51.536;7.562;2023-04-15T10:27:51;13.77;;;10.13;;
50219;SDS011;36110;51.536;7.562;2023-04-15T10:30:17;12.25;;;9.13;;
50219;SDS011;36110;51.536;7.562;2023-04-15T10:32:42;10.48;;;8.13;;
50219;SDS011;36110;51.536;7.562;2023-04-15T10:35:09;13.65;;;9.63;;
50219;SDS011;36110;51.536;7.562;2023-04-15T10:37:35;11.07;;;9.05;;
50219;SDS011;36110;51.536;7.562;2023-04-15T10:42:58;11.65;;;9.23;;
50219;SDS011;36110;51.536;7.562;2023-04-15T10:45:35;12.02;;;9.10;;
50219;SDS011;36110;51.536;7.562;2023-04-15T10:48:01;11.75;;;9.27;;
50219;SDS011;36110;51.536;7.562;2023-04-15T10:50:29;8.55;;;7.50;;
50219;SDS011;36110;51.536;7.562;2023-04-15T10:52:55;11.07;;;9.13;;
50219;SDS011;36110;51.536;7.562;2023-04-15T10:55:25;10.63;;;8.48;;
50219;SDS011;36110;51.536;7.562;2023-04-15T10:57:52;14.60;;;9.00;;
50219;SDS011;36110;51.536;7.562;2023-04-15T11:00:18;11.25;;;9.40;;
50219;SDS011;36110;51.536;7.562;2023-04-15T11:05:14;11.77;;;9.90;;
50219;SDS011;36110;51.536;7.562;2023-04-15T11:08:02;13.63;;;10.27;;
50219;SDS011;36110;51.536;7.562;2023-04-15T11:13:04;9.88;;;8.43;;
50219;SDS011;36110;51.536;7.562;2023-04-15T11:18:12;8.90;;;7.65;;
50219;SDS011;36110;51.536;7.562;2023-04-15T11:20:42;9.27;;;7.90;;
50219;SDS011;36110;51.536;7.562;2023-04-15T11:23:11;9.05;;;7.72;;
50219;SDS011;36110;51.536;7.562;2023-04-15T11:25:37;10.15;;;8.30;;
50219;SDS011;36110;51.536;7.562;2023-04-15T11:28:02;8.90;;;7.97;;
50219;SDS011;36110;51.536;7.562;2023-04-15T11:30:29;9.85;;;7.13;;
50219;SDS011;36110;51.536;7.562;2023-04-15T11:33:00;8.20;;;7.40;;
50219;SDS011;36110;51.536;7.562;2023-04-15T11:35:27;8.23;;;7.38;;
50219;SDS011;36110;51.536;7.562;2023-04-15T11:37:53;8.35;;;7.32;;
50219;SDS011;36110;51.536;7.562;2023-04-15T11:40:23;8.02;;;7.07;;
50219;SDS011;36110;51.536;7.562;2023-04-15T11:43:14;8.63;;;7.18;;
50219;SDS011;36110;51.536;7.562;2023-04-15T11:48:32;6.53;;;5.93;;
50219;SDS011;36110;51.536;7.562;2023-04-15T11:51:00;6.43;;;5.78;;
50219;SDS011;36110;51.536;7.562;2023-04-15T11:56:04;7.07;;;5.78;;
50219;SDS011;36110;51.536;7.562;2023-04-15T11:58:30;8.40;;;7.05;;
50219;SDS011;36110;51.536;7.562;2023-04-15T12:00:59;8.75;;;7.68;;
50219;SDS011;36110;51.536;7.562;2023-04-15T12:03:28;9.02;;;7.07;;
50219;SDS011;36110;51.536;7.562;2023-04-15T12:08:49;9.82;;;7.75;;
50219;SDS011;36110;51.536;7.562;2023-04-15T12:13:55;9.93;;;7.85;;
50219;SDS011;36110;51.536;7.562;2023-04-15T12:16:23;7.20;;;6.50;;
50219;SDS011;36110;51.536;7.562;2023-04-15T12:18:52;6.32;;;5.25;;
50219;SDS011;36110;51.536;7.562;2023-04-15T12:21:20;7.70;;;5.30;;
50219;SDS011;36110;51.536;7.562;2023-04-15T12:23:52;6.18;;;4.82;;
50219;SDS011;36110;51.536;7.562;2023-04-15T12:26:28;6.28;;;4.82;;
50219;SDS011;36110;51.536;7.562;2023-04-15T12:31:31;5.53;;;5.03;;
50219;SDS011;36110;51.536;7.562;2023-04-15T12:33:57;9.60;;;6.95;;
50219;SDS011;36110;51.536;7.562;2023-04-15T12:36:24;4.80;;;4.30;;
50219;SDS011;36110;51.536;7.562;2023-04-15T12:38:49;8.32;;;7.03;;
50219;SDS011;36110;51.536;7.562;2023-04-15T12:41:15;5.32;;;4.38;;
50219;SDS011;36110;51.536;7.562;2023-04-15T12:43:40;4.97;;;4.18;;
50219;SDS011;36110;51.536;7.562;2023-04-15T12:46:06;4.50;;;4.10;;
50219;SDS011;36110;51.536;7.562;2023-04-15T12:48:32;6.88;;;4.50;;
50219;SDS011;36110;51.536;7.562;2023-04-15T12:50:58;6.60;;;4.50;;
50219;SDS011;36110;51.536;7.562;2023-04-15T12:53:23;3.83;;;3.50;;
50219;SDS011;36110;51.536;7.562;2023-04-15T12:55:48;5.28;;;4.78;;
50219;SDS011;36110;51.536;7.562;2023-04-15T12:58:14;4.85;;;3.63;;
50219;SDS011;36110;51.536;7.562;2023-04-15T13:00:39;6.43;;;5.65;;
50219;SDS011;36110;51.536;7.562;2023-04-15T13:03:04;5.38;;;4.55;;
50219;SDS011;36110;51.536;7.562;2023-04-15T13:05:30;8.00;;;7.20;;
50219;SDS011;36110;51.536;7.562;2023-04-15T13:07:55;4.47;;;3.80;;
50219;SDS011;36110;51.536;7.562;2023-04-15T13:10:20;4.43;;;3.60;;
50219;SDS011;36110;51.536;7.562;2023-04-15T13:12:47;5.82;;;4.47;;
50219;SDS011;36110;51.536;7.562;2023-04-15T13:15:14;5.47;;;4.32;;
50219;SDS011;36110;51.536;7.562;2023-04-15T13:17:43;8.60;;;5.90;;
50219;SDS011;36110;51.536;7.562;2023-04-15T13:20:08;5.32;;;4.80;;
50219;SDS011;36110;51.536;7.562;2023-04-15T13:22:34;3.95;;;3.55;;
50219;SDS011;36110;51.536;7.562;2023-04-15T13:25:00;5.72;;;3.83;;
50219;SDS011;36110;51.536;7.562;2023-04-15T13:27:25;6.47;;;5.85;;
50219;SDS011;36110;51.536;7.562;2023-04-15T13:29:51;4.30;;;3.45;;
50219;SDS011;36110;51.536;7.562;2023-04-15T13:32:16;6.70;;;5.95;;
50219;SDS011;36110;51.536;7.562;2023-04-15T13:34:42;8.73;;;6.40;;
50219;SDS011;36110;51.536;7.562;2023-04-15T13:37:07;4.53;;;3.63;;
50219;SDS011;36110;51.536;7.562;2023-04-15T13:39:33;4.95;;;3.20;;
50219;SDS011;36110;51.536;7.562;2023-04-15T13:41:58;3.92;;;3.60;;
50219;SDS011;36110;51.536;7.562;2023-04-15T13:44:24;3.20;;;2.90;;
50219;SDS011;36110;51.536;7.562;2023-04-15T13:46:49;3.90;;;3.13;;
50219;SDS011;36110;51.536;7.562;2023-04-15T13:49:14;6.20;;;5.25;;
50219;SDS011;36110;51.536;7.562;2023-04-15T13:51:40;6.22;;;5.63;;
50219;SDS011;36110;51.536;7.562;2023-04-15T13:54:05;4.97;;;4.40;;
50219;SDS011;36110;51.536;7.562;2023-04-15T13:56:31;4.78;;;3.97;;
50219;SDS011;36110;51.536;7.562;2023-04-15T13:58:56;3.50;;;3.20;;
50219;SDS011;36110;51.536;7.562;2023-04-15T14:01:23;4.22;;;3.72;;
50219;SDS011;36110;51.536;7.562;2023-04-15T14:03:49;4.32;;;3.88;;
50219;SDS011;36110;51.536;7.562;2023-04-15T14:06:14;4.22;;;3.20;;
50219;SDS011;36110;51.536;7.562;2023-04-15T14:08:40;6.80;;;5.07;;
50219;SDS011;36110;51.536;7.562;2023-04-15T14:11:05;3.45;;;3.03;;
50219;SDS011;36110;51.536;7.562;2023-04-15T14:13:31;3.92;;;3.28;;
50219;SDS011;36110;51.536;7.562;2023-04-15T14:15:56;3.08;;;2.78;;
50219;SDS011;36110;51.536;7.562;2023-04-15T14:18:21;3.70;;;3.40;;
50219;SDS011;36110;51.536;7.562;2023-04-15T14:20:47;4.05;;;3.30;;
50219;SDS011;36110;51.536;7.562;2023-04-15T14:23:12;4.18;;;3.28;;
50219;SDS011;36110;51.536;7.562;2023-04-15T14:25:37;3.90;;;3.50;;
50219;SDS011;36110;51.536;7.562;2023-04-15T14:28:03;3.20;;;2.90;;
50219;SDS011;36110;51.536;7.562;2023-04-15T14:30:28;4.45;;;3.38;;
50219;SDS011;36110;51.536;7.562;2023-04-15T14:32:54;5.05;;;3.33;;
50219;SDS011;36110;51.536;7.562;2023-04-15T14:35:19;4.18;;;3.78;;
50219;SDS011;36110;51.536;7.562;2023-04-15T14:37:44;4.22;;;3.78;;
50219;SDS011;36110;51.536;7.562;2023-04-15T14:40:10;5.10;;;3.80;;
50219;SDS011;36110;51.536;7.562;2023-04-15T14:42:35;5.88;;;4.63;;
50219;SDS011;36110;51.536;7.562;2023-04-15T14:45:00;4.65;;;3.30;;
50219;SDS011;36110;51.536;7.562;2023-04-15T14:47:26;2.92;;;2.72;;
50219;SDS011;36110;51.536;7.562;2023-04-15T14:49:51;4.13;;;2.80;;
50219;SDS011;36110;51.536;7.562;2023-04-15T14:52:16;4.47;;;3.53;;
50219;SDS011;36110;51.536;7.562;2023-04-15T14:54:42;4.72;;;2.78;;
50219;SDS011;36110;51.536;7.562;2023-04-15T14:57:07;4.38;;;3.47;;
50219;SDS011;36110;51.536;7.562;2023-04-15T14:59:33;3.28;;;2.97;;
50219;SDS011;36110;51.536;7.562;2023-04-15T15:01:58;3.25;;;2.80;;
50219;SDS011;36110;51.536;7.562;2023-04-15T15:04:23;3.35;;;2.80;;
50219;SDS011;36110;51.536;7.562;2023-04-15T15:06:49;3.13;;;2.83;;
50219;SDS011;36110;51.536;7.562;2023-04-15T15:09:14;3.55;;;3.25;;
50219;SDS011;36110;51.536;7.562;2023-04-15T15:11:40;4.03;;;3.42;;